West Coxsackie, New York
Current Conditions -  °F | °C
As of 1:51 PM on Thursday 23 Oct 2014 (Local Time) from KALB Reporting Station
Light Rain Light Rain  
Wind Chill: 42°   Ceiling: 1100
Heat Index: 48°   Visibility: 10mi
Dew Point: 44°   Wind: 14mph
Humidity: 86%   Direction: 10°N
Pressure: 29.83"   Gusts: NA
Location:  42.36°N, 73.82°W
Report Text: KALB 231751Z 01012KT 10SM -RA SCT008 BKN011 OVC015 09/07 A2983 RMK AO2 SLP101 PCPN VRY LGT AND INTMT P0003 60046 T00890067 10089 20078 55009 $
Loading
Personal Weather Stations






























Interactive Weather Map
Tropical Storm Tracking
New forecast layout! Learn more

10-Day Weather Forecast

Advertisements
Track Severe Weather on mobile